Time;durP1;ratioP1;P1;durP2;ratioP2;P2;SDS_P1;SDS_P2;PMS_P1;PMS_P2;Temp;Humidity;BMP_temperature;BMP_pressure;BME280_temperature;BME280_humidity;BME280_pressure;Samples;Min_cycle;Max_cycle;Signal;HPM_P1;HPM_P2
2024/04/08 00:00:21;;;;;;;9.25;1.90;;;20.50;76.10;;;;;;5031528;28;20390;-75
2024/04/08 00:02:50;;;;;;;12.68;1.90;;;20.50;76.10;;;;;;5016251;28;20034;-75
2024/04/08 00:05:17;;;;;;;9.15;1.55;;;20.50;76.00;;;;;;5021809;28;20129;-75
2024/04/08 00:07:48;;;;;;;7.88;1.67;;;20.40;77.10;;;;;;5029698;28;20034;-75
2024/04/08 00:10:14;;;;;;;12.38;2.15;;;20.40;76.90;;;;;;5021635;28;20025;-75
2024/04/08 00:12:41;;;;;;;7.57;1.95;;;20.40;76.50;;;;;;5014587;28;20112;-75
2024/04/08 00:15:08;;;;;;;7.78;1.80;;;20.40;76.10;;;;;;5018597;28;20504;-75
2024/04/08 00:17:34;;;;;;;8.18;1.75;;;20.40;76.00;;;;;;5014679;28;20033;-75
2024/04/08 00:20:00;;;;;;;12.27;1.85;;;20.30;76.50;;;;;;5020392;28;20444;-75
2024/04/08 00:22:25;;;;;;;6.97;1.75;;;20.30;76.60;;;;;;5021913;28;20112;-75
2024/04/08 00:24:52;;;;;;;11.50;1.90;;;20.30;76.90;;;;;;5046851;28;20533;-75
2024/04/08 00:27:18;;;;;;;7.93;1.73;;;20.30;76.70;;;;;;5036918;28;20049;-75
2024/04/08 00:29:43;;;;;;;11.23;2.05;;;20.20;76.50;;;;;;5032068;28;20056;-76
2024/04/08 00:32:09;;;;;;;6.65;1.63;;;20.20;76.60;;;;;;5044349;28;20551;-75
2024/04/08 00:34:34;;;;;;;7.63;2.17;;;20.20;76.70;;;;;;5022509;28;20079;-75
2024/04/08 00:37:00;;;;;;;9.05;2.35;;;20.20;77.00;;;;;;5035701;28;20082;-75
2024/04/08 00:39:26;;;;;;;9.55;1.75;;;20.20;77.40;;;;;;5041304;28;20024;-75
2024/04/08 00:41:51;;;;;;;7.50;1.77;;;20.20;77.80;;;;;;5030318;28;20480;-76
2024/04/08 00:44:17;;;;;;;9.70;2.35;;;20.10;77.80;;;;;;5043244;28;20029;-76
2024/04/08 00:46:42;;;;;;;9.73;2.28;;;20.10;78.00;;;;;;5022257;28;20025;-76
2024/04/08 00:51:49;;;;;;;10.80;2.05;;;20.00;77.80;;;;;;4993898;23;20041;-76
2024/04/08 00:54:15;;;;;;;11.18;2.03;;;20.00;77.80;;;;;;4985016;28;20030;-75
2024/04/08 00:56:43;;;;;;;9.30;2.17;;;20.00;78.00;;;;;;4981184;28;20097;-76
2024/04/08 00:59:14;;;;;;;10.52;2.15;;;19.90;78.10;;;;;;4986828;28;20047;-76
2024/04/08 01:01:41;;;;;;;12.05;2.10;;;20.00;78.30;;;;;;4988649;28;20034;-76
2024/04/08 01:04:07;;;;;;;5.93;1.67;;;20.00;78.50;;;;;;4985595;28;20045;-76
2024/04/08 01:06:33;;;;;;;5.57;1.65;;;19.90;78.70;;;;;;4989037;28;20065;-76
2024/04/08 01:08:59;;;;;;;12.82;2.08;;;19.90;78.60;;;;;;4987903;28;20061;-76
2024/04/08 01:11:25;;;;;;;8.68;2.53;;;19.90;78.80;;;;;;4989039;28;20067;-76
2024/04/08 01:13:51;;;;;;;8.88;1.70;;;19.90;78.80;;;;;;4985009;28;20030;-76
2024/04/08 01:16:20;;;;;;;8.43;1.70;;;19.80;78.90;;;;;;4986485;28;20038;-76
2024/04/08 01:18:45;;;;;;;17.15;2.70;;;19.90;79.10;;;;;;4987183;28;20050;-76
2024/04/08 01:21:11;;;;;;;6.75;1.92;;;19.90;79.10;;;;;;4988872;28;20069;-76
2024/04/08 01:23:38;;;;;;;10.43;1.88;;;19.90;79.30;;;;;;4979895;28;20473;-76
2024/04/08 01:26:04;;;;;;;12.00;2.45;;;19.80;79.90;;;;;;4986504;28;20080;-76
2024/04/08 01:28:29;;;;;;;7.43;1.80;;;19.80;80.40;;;;;;4988745;28;20066;-75
2024/04/08 01:30:59;;;;;;;9.82;2.05;;;19.80;79.80;;;;;;4987289;28;20039;-76
2024/04/08 01:33:28;;;;;;;11.23;1.90;;;19.80;80.00;;;;;;4973006;28;20085;-76
2024/04/08 01:35:59;;;;;;;7.55;1.90;;;19.70;80.30;;;;;;4978491;28;20042;-75
2024/04/08 01:38:26;;;;;;;9.95;1.95;;;19.70;80.60;;;;;;5004766;28;20069;-76
2024/04/08 01:40:52;;;;;;;15.50;2.25;;;19.70;80.90;;;;;;4992259;28;20109;-76
2024/04/08 01:43:17;;;;;;;5.53;1.85;;;19.60;80.70;;;;;;4986123;28;20038;-76
2024/04/08 01:45:43;;;;;;;9.43;1.92;;;19.60;80.70;;;;;;4994007;28;20034;-76
2024/04/08 01:48:09;;;;;;;11.50;1.77;;;19.50;81.40;;;;;;4984986;28;20566;-76
2024/04/08 01:50:34;;;;;;;9.00;1.92;;;19.50;81.50;;;;;;4988413;28;20059;-76
2024/04/08 01:53:00;;;;;;;7.40;2.15;;;19.40;81.30;;;;;;4990764;28;20125;-76
2024/04/08 01:55:26;;;;;;;7.72;1.92;;;19.40;81.30;;;;;;4982239;28;20454;-76
2024/04/08 01:57:52;;;;;;;11.50;2.20;;;19.40;81.80;;;;;;4985235;28;20030;-76
2024/04/08 02:00:19;;;;;;;9.63;2.03;;;19.30;82.10;;;;;;4986784;28;20061;-76
2024/04/08 02:02:44;;;;;;;8.50;2.08;;;19.30;82.10;;;;;;4987838;28;20121;-76
2024/04/08 02:05:10;;;;;;;6.07;2.03;;;19.30;82.10;;;;;;4986659;28;20113;-76
2024/04/08 02:07:35;;;;;;;14.38;2.42;;;19.30;82.40;;;;;;4988572;28;20031;-75
2024/04/08 02:10:01;;;;;;;9.80;1.80;;;19.30;82.30;;;;;;4989673;28;20053;-76
2024/04/08 02:12:27;;;;;;;12.07;2.00;;;19.30;83.00;;;;;;4986571;28;20390;-79
2024/04/08 02:14:53;;;;;;;7.55;1.63;;;19.20;83.20;;;;;;4985838;28;20049;-75
2024/04/08 02:17:18;;;;;;;10.60;2.10;;;19.20;84.10;;;;;;4989067;28;20038;-76
2024/04/08 02:19:44;;;;;;;10.50;2.17;;;19.10;83.70;;;;;;4981806;28;20026;-76
2024/04/08 02:22:09;;;;;;;5.55;1.67;;;19.10;84.70;;;;;;4983344;28;20042;-76
2024/04/08 02:24:35;;;;;;;12.00;2.03;;;19.00;84.80;;;;;;4986309;28;20424;-74
2024/04/08 02:27:01;;;;;;;10.32;2.15;;;18.90;84.70;;;;;;4988513;28;20038;-76
2024/04/08 02:29:27;;;;;;;9.10;1.90;;;19.00;84.60;;;;;;4985349;28;20038;-76
2024/04/08 02:31:53;;;;;;;12.88;2.65;;;19.00;84.20;;;;;;4991139;28;20452;-76
2024/04/08 02:34:19;;;;;;;18.10;2.83;;;18.90;84.70;;;;;;4990765;28;20038;-76
2024/04/08 02:36:45;;;;;;;10.77;2.20;;;18.90;85.20;;;;;;4990991;28;20050;-75
2024/04/08 02:39:11;;;;;;;7.60;1.55;;;18.80;85.00;;;;;;4989820;28;20027;-74
2024/04/08 02:41:36;;;;;;;9.25;1.88;;;18.80;85.40;;;;;;4991711;28;20039;-74
2024/04/08 02:44:02;;;;;;;16.85;2.65;;;18.80;85.10;;;;;;4989027;28;20354;-74
2024/04/08 02:46:28;;;;;;;5.15;1.52;;;18.80;85.00;;;;;;4991852;28;20378;-74
2024/04/08 02:48:53;;;;;;;10.45;2.42;;;18.80;85.10;;;;;;4987609;28;20041;-75
2024/04/08 02:51:19;;;;;;;11.32;2.00;;;18.80;85.50;;;;;;4987764;28;20038;-75
2024/04/08 02:53:45;;;;;;;7.53;1.80;;;18.80;85.70;;;;;;4989854;28;20496;-75
2024/04/08 02:56:10;;;;;;;11.13;2.65;;;18.70;85.40;;;;;;4985621;28;20038;-75
2024/04/08 02:58:36;;;;;;;4.18;1.70;;;18.70;85.60;;;;;;4989929;28;20023;-75
2024/04/08 03:01:12;;;;;;;7.53;1.92;;;18.70;85.80;;;;;;4990895;28;20061;-75
2024/04/08 03:03:38;;;;;;;16.98;2.25;;;18.70;85.80;;;;;;4990835;28;20034;-75
2024/04/08 03:06:14;;;;;;;10.82;1.90;;;18.70;85.90;;;;;;4989611;28;20392;-75
2024/04/08 03:08:41;;;;;;;8.38;2.05;;;18.70;85.60;;;;;;4991283;28;20046;-75
2024/04/08 03:11:09;;;;;;;7.70;2.00;;;18.70;86.40;;;;;;4988810;28;20042;-75
2024/04/08 03:13:36;;;;;;;5.45;1.85;;;18.70;87.00;;;;;;4991371;28;20038;-75
2024/04/08 03:16:02;;;;;;;7.43;2.10;;;18.60;88.40;;;;;;4988035;28;20122;-75
2024/04/08 03:18:28;;;;;;;6.90;2.03;;;18.50;88.80;;;;;;4990198;28;20065;-75
2024/04/08 03:20:54;;;;;;;7.70;2.08;;;18.50;88.70;;;;;;4987645;28;20034;-75
2024/04/08 03:23:20;;;;;;;10.43;2.08;;;18.50;88.60;;;;;;4990700;28;20027;-75
2024/04/08 03:25:45;;;;;;;11.02;2.70;;;18.50;88.50;;;;;;4989323;28;20038;-75
2024/04/08 03:28:11;;;;;;;9.48;2.10;;;18.50;89.00;;;;;;4991322;28;20045;-75
2024/04/08 03:30:37;;;;;;;11.82;2.00;;;18.40;88.70;;;;;;4989137;28;20038;-75
2024/04/08 03:33:02;;;;;;;11.38;2.28;;;18.50;88.60;;;;;;4989002;28;20042;-75
2024/04/08 03:35:28;;;;;;;5.30;1.73;;;18.50;88.40;;;;;;4987439;28;20671;-75
2024/04/08 03:37:54;;;;;;;9.23;2.40;;;18.50;88.50;;;;;;4989855;28;20033;-75
2024/04/08 03:40:23;;;;;;;12.05;1.95;;;18.50;88.90;;;;;;4989384;28;20567;-75
2024/04/08 03:42:49;;;;;;;6.47;2.15;;;18.50;89.40;;;;;;4990001;28;20046;-75
2024/04/08 03:45:15;;;;;;;8.80;2.30;;;18.40;89.90;;;;;;4998306;28;20023;-75
2024/04/08 03:47:41;;;;;;;16.65;2.42;;;18.40;90.20;;;;;;4989797;28;20452;-75
2024/04/08 03:50:07;;;;;;;7.53;1.92;;;18.30;90.30;;;;;;4990432;28;20034;-75
2024/04/08 03:52:33;;;;;;;6.18;1.90;;;18.30;90.20;;;;;;4988588;28;20034;-75
2024/04/08 03:54:59;;;;;;;8.40;2.00;;;18.40;90.20;;;;;;4990393;28;20176;-75
2024/04/08 03:57:25;;;;;;;9.35;2.10;;;18.40;90.20;;;;;;4989681;28;20398;-75
2024/04/08 03:59:50;;;;;;;10.27;3.20;;;18.40;90.20;;;;;;4988792;28;20092;-75
2024/04/08 04:02:16;;;;;;;8.60;2.33;;;18.30;90.20;;;;;;4988102;28;20109;-75
2024/04/08 04:04:41;;;;;;;7.15;2.40;;;18.40;90.30;;;;;;4989437;28;20033;-75
2024/04/08 04:07:07;;;;;;;6.80;1.90;;;18.40;90.30;;;;;;4989321;28;20045;-75
2024/04/08 04:09:33;;;;;;;9.52;2.38;;;18.40;90.40;;;;;;4988436;28;20113;-75
2024/04/08 04:11:58;;;;;;;4.50;2.15;;;18.40;90.50;;;;;;4990316;28;20484;-75
2024/04/08 04:14:24;;;;;;;8.25;2.20;;;18.30;90.60;;;;;;4988441;28;20445;-75
2024/04/08 04:16:51;;;;;;;6.70;2.42;;;18.30;90.70;;;;;;4990275;28;20128;-75
2024/04/08 04:19:17;;;;;;;10.98;2.05;;;18.40;90.80;;;;;;4978709;28;20038;-75
2024/04/08 04:21:43;;;;;;;7.75;2.30;;;18.30;90.80;;;;;;4989201;28;20034;-75
2024/04/08 04:24:08;;;;;;;3.38;1.90;;;18.30;91.00;;;;;;4988260;28;20041;-75
2024/04/08 04:26:34;;;;;;;8.00;2.25;;;18.30;91.10;;;;;;4989647;28;20030;-75
2024/04/08 04:29:00;;;;;;;11.65;2.53;;;18.30;91.20;;;;;;4987955;28;20520;-75
2024/04/08 04:31:39;;;;;;;5.80;2.80;;;18.20;91.20;;;;;;4989252;28;20037;-75
2024/04/08 04:34:05;;;;;;;8.73;2.67;;;18.30;91.20;;;;;;4988928;28;20092;-75
2024/04/08 04:36:31;;;;;;;9.10;2.50;;;18.30;91.30;;;;;;4989753;28;20042;-75
2024/04/08 04:38:56;;;;;;;6.18;2.50;;;18.20;91.30;;;;;;4987912;28;20023;-75
2024/04/08 04:41:22;;;;;;;4.90;2.38;;;18.20;91.30;;;;;;4988319;28;20512;-75
2024/04/08 04:43:47;;;;;;;8.10;2.33;;;18.20;91.30;;;;;;4986081;28;20117;-75
2024/04/08 04:46:13;;;;;;;8.75;2.42;;;18.30;91.30;;;;;;4989933;28;20031;-74
2024/04/08 04:48:40;;;;;;;5.80;2.17;;;18.40;91.20;;;;;;4987823;28;20432;-74
2024/04/08 04:51:05;;;;;;;7.93;2.20;;;18.40;91.10;;;;;;4985991;28;20062;-74
2024/04/08 04:53:31;;;;;;;5.35;2.30;;;18.40;91.00;;;;;;4988133;28;20045;-74
2024/04/08 04:55:57;;;;;;;6.00;2.33;;;18.50;91.00;;;;;;4987444;28;20493;-75
2024/04/08 04:58:23;;;;;;;5.85;2.33;;;18.50;90.90;;;;;;4983266;28;20058;-74
2024/04/08 05:00:49;;;;;;;6.15;2.40;;;18.50;91.00;;;;;;4988187;28;20073;-75
2024/04/08 05:03:16;;;;;;;6.63;2.80;;;18.50;91.00;;;;;;4988291;28;20446;-75
2024/04/08 05:05:41;;;;;;;7.22;2.70;;;18.50;91.00;;;;;;4988234;28;20034;-74
2024/04/08 05:08:07;;;;;;;5.65;2.58;;;18.50;91.10;;;;;;4989494;28;20537;-75
2024/04/08 05:10:33;;;;;;;8.57;2.70;;;18.40;91.10;;;;;;4986200;28;20030;-74
2024/04/08 05:12:58;;;;;;;5.05;2.50;;;18.40;91.20;;;;;;4978246;28;20483;-76
2024/04/08 05:15:24;;;;;;;8.85;2.70;;;18.50;91.20;;;;;;4986914;28;20034;-74
2024/04/08 05:17:50;;;;;;;9.52;2.50;;;18.40;91.30;;;;;;4988436;28;20045;-74
2024/04/08 05:20:16;;;;;;;8.32;2.95;;;18.40;91.30;;;;;;4987848;28;20039;-74
2024/04/08 05:22:46;;;;;;;8.05;2.53;;;18.40;91.30;;;;;;4987478;28;20061;-74
2024/04/08 05:25:12;;;;;;;8.00;2.60;;;18.40;91.40;;;;;;4982757;28;20544;-74
2024/04/08 05:27:38;;;;;;;7.25;2.67;;;18.30;91.40;;;;;;4987654;28;20141;-75
2024/04/08 05:30:05;;;;;;;7.13;2.55;;;18.30;91.50;;;;;;4988023;28;20478;-76
2024/04/08 05:32:31;;;;;;;9.32;3.35;;;18.30;91.50;;;;;;4982164;28;20045;-74
2024/04/08 05:34:56;;;;;;;7.63;2.70;;;18.30;91.50;;;;;;4980944;28;20042;-74
2024/04/08 05:37:22;;;;;;;7.22;2.88;;;18.30;91.60;;;;;;4975759;28;20046;-74
2024/04/08 05:39:48;;;;;;;7.57;3.08;;;18.30;91.70;;;;;;4986390;28;20030;-74
2024/04/08 05:42:13;;;;;;;6.93;2.90;;;18.20;91.70;;;;;;4987555;28;20039;-75
2024/04/08 05:44:39;;;;;;;6.97;2.97;;;18.10;91.80;;;;;;4990208;28;20022;-75
2024/04/08 05:47:05;;;;;;;7.15;3.00;;;18.10;91.90;;;;;;4985941;28;20065;-75
2024/04/08 05:49:30;;;;;;;6.78;3.13;;;18.10;92.00;;;;;;4989203;28;20038;-75
2024/04/08 05:51:56;;;;;;;8.30;3.00;;;18.00;92.00;;;;;;4983343;28;20054;-74
2024/04/08 05:54:23;;;;;;;5.55;3.10;;;18.00;92.10;;;;;;4981629;28;20150;-75
2024/04/08 05:56:49;;;;;;;8.48;3.03;;;17.90;92.10;;;;;;4987768;28;20252;-75
2024/04/08 05:59:15;;;;;;;8.52;3.20;;;18.00;92.20;;;;;;4986025;28;20521;-75
2024/04/08 06:01:40;;;;;;;7.28;3.65;;;17.90;92.20;;;;;;4979053;28;20047;-75
2024/04/08 06:04:08;;;;;;;9.98;3.80;;;17.90;92.20;;;;;;4985877;28;20030;-75
2024/04/08 06:06:33;;;;;;;9.32;3.45;;;17.90;92.30;;;;;;4980407;28;20030;-75
2024/04/08 06:09:05;;;;;;;10.88;3.50;;;17.90;92.30;;;;;;4984291;28;20445;-74
2024/04/08 06:11:31;;;;;;;6.07;3.15;;;17.90;92.40;;;;;;4986253;28;20027;-74
2024/04/08 06:13:57;;;;;;;9.00;3.30;;;17.90;92.50;;;;;;4976932;28;20030;-75
2024/04/08 06:16:22;;;;;;;8.68;3.25;;;17.80;92.60;;;;;;4982154;28;20469;-75
2024/04/08 06:18:48;;;;;;;9.05;3.58;;;17.80;92.60;;;;;;4990340;28;20481;-75
2024/04/08 06:21:14;;;;;;;13.52;3.08;;;17.80;92.60;;;;;;4991161;28;20030;-75
2024/04/08 06:23:39;;;;;;;14.32;4.10;;;17.90;92.70;;;;;;4992868;28;20506;-75
2024/04/08 06:26:05;;;;;;;7.35;3.35;;;17.90;92.80;;;;;;4990968;28;20046;-75
2024/04/08 06:28:31;;;;;;;6.72;3.22;;;17.90;92.80;;;;;;4991278;28;20109;-75
2024/04/08 06:30:56;;;;;;;6.88;3.15;;;17.90;92.80;;;;;;4986280;28;20093;-74
2024/04/08 06:33:22;;;;;;;7.32;3.42;;;17.90;92.50;;;;;;4985469;28;20042;-75
2024/04/08 06:35:48;;;;;;;8.18;3.58;;;17.90;92.20;;;;;;4985492;28;20042;-74
2024/04/08 06:38:14;;;;;;;15.35;3.65;;;18.00;92.10;;;;;;4983761;28;20469;-75
2024/04/08 06:40:41;;;;;;;8.45;3.45;;;18.00;92.00;;;;;;4990717;28;20054;-75
2024/04/08 06:43:06;;;;;;;8.90;3.53;;;18.00;92.00;;;;;;4990476;28;20088;-75
2024/04/08 06:45:32;;;;;;;9.95;3.38;;;18.10;92.00;;;;;;4983321;28;20513;-75
2024/04/08 06:47:58;;;;;;;12.52;3.28;;;18.10;92.00;;;;;;4991892;28;20022;-75
2024/04/08 06:50:23;;;;;;;7.25;3.60;;;18.20;92.10;;;;;;4989433;28;20054;-75
2024/04/08 06:52:49;;;;;;;8.93;3.67;;;18.20;91.70;;;;;;4990936;28;20049;-75
2024/04/08 06:55:18;;;;;;;7.20;3.35;;;18.20;91.70;;;;;;4991895;28;20109;-75
2024/04/08 06:57:44;;;;;;;7.00;3.53;;;18.20;91.60;;;;;;4991093;28;20026;-75
2024/04/08 07:00:10;;;;;;;8.65;3.35;;;18.10;91.40;;;;;;4991127;28;20032;-74
2024/04/08 07:02:36;;;;;;;7.45;3.53;;;18.10;91.60;;;;;;4990748;28;20070;-74
2024/04/08 07:05:02;;;;;;;6.75;3.25;;;18.10;91.70;;;;;;4978301;28;20058;-75
2024/04/08 07:07:28;;;;;;;12.15;3.45;;;18.10;91.60;;;;;;4991683;28;20537;-75
2024/04/08 07:09:54;;;;;;;6.40;2.55;;;18.10;91.60;;;;;;4983497;28;20134;-75
2024/04/08 07:12:19;;;;;;;5.53;2.78;;;18.10;91.60;;;;;;4991843;28;20048;-75
2024/04/08 07:14:45;;;;;;;6.85;2.08;;;18.10;91.70;;;;;;4990223;28;20038;-75
2024/04/08 07:17:10;;;;;;;5.22;2.90;;;18.10;91.70;;;;;;4989848;28;20477;-75
2024/04/08 07:19:37;;;;;;;5.55;2.60;;;18.10;91.70;;;;;;4990321;28;20030;-75
2024/04/08 07:22:03;;;;;;;6.55;2.72;;;18.10;91.90;;;;;;4991068;28;20034;-74
2024/04/08 07:24:28;;;;;;;7.05;2.40;;;18.10;92.00;;;;;;4987349;28;20052;-75
2024/04/08 07:26:54;;;;;;;6.05;2.60;;;18.10;92.00;;;;;;4990541;28;20034;-75
2024/04/08 07:29:19;;;;;;;7.88;3.15;;;18.00;92.00;;;;;;4988010;28;20034;-76
2024/04/08 07:31:45;;;;;;;11.95;2.90;;;18.00;92.10;;;;;;4975596;28;20046;-75
2024/04/08 07:34:11;;;;;;;6.03;2.65;;;18.00;92.10;;;;;;4987992;28;20042;-75
2024/04/08 07:36:36;;;;;;;5.00;2.70;;;18.00;92.20;;;;;;4988420;28;20038;-75
2024/04/08 07:39:02;;;;;;;12.02;2.95;;;18.00;92.30;;;;;;4986905;28;20548;-76
2024/04/08 07:41:29;;;;;;;7.63;3.25;;;18.00;92.40;;;;;;4990232;28;20116;-74
2024/04/08 07:43:54;;;;;;;5.90;2.60;;;18.00;92.40;;;;;;4987007;28;20041;-75
2024/04/08 07:46:20;;;;;;;6.03;2.53;;;18.00;92.50;;;;;;4996167;28;20057;-75
2024/04/08 07:48:46;;;;;;;8.85;3.30;;;17.90;92.50;;;;;;4986806;28;20049;-74
2024/04/08 07:51:11;;;;;;;7.82;3.28;;;17.90;92.60;;;;;;4987913;28;20057;-74
2024/04/08 07:53:37;;;;;;;11.48;3.05;;;17.90;92.60;;;;;;4987106;28;20038;-74
2024/04/08 07:56:03;;;;;;;7.38;3.10;;;18.00;92.60;;;;;;4984907;28;20046;-74
2024/04/08 07:58:30;;;;;;;11.45;3.78;;;18.00;92.70;;;;;;4988213;28;20041;-74
2024/04/08 08:00:59;;;;;;;6.85;3.28;;;18.10;92.50;;;;;;4977836;28;20769;-74
2024/04/08 08:03:28;;;;;;;8.27;4.03;;;18.20;92.50;;;;;;4981093;28;20022;-75
2024/04/08 08:05:55;;;;;;;11.52;3.95;;;18.20;92.60;;;;;;4982484;28;20038;-75
2024/04/08 08:08:20;;;;;;;7.85;3.95;;;18.20;92.90;;;;;;4981981;28;20023;-74
2024/04/08 08:10:46;;;;;;;9.50;4.00;;;18.20;93.00;;;;;;4975766;28;20397;-76
2024/04/08 08:13:12;;;;;;;7.82;3.40;;;18.20;93.00;;;;;;4972225;28;20026;-75
2024/04/08 08:15:37;;;;;;;9.98;4.00;;;18.20;93.00;;;;;;4987567;28;20090;-75
2024/04/08 08:18:03;;;;;;;9.20;3.75;;;18.30;93.10;;;;;;4981215;28;20037;-75
2024/04/08 08:20:30;;;;;;;8.23;3.35;;;18.20;93.20;;;;;;4986678;28;20117;-75
2024/04/08 08:23:00;;;;;;;12.35;3.47;;;18.20;93.20;;;;;;4986355;28;20528;-75
2024/04/08 08:25:29;;;;;;;5.10;2.33;;;18.30;93.00;;;;;;4988248;28;20079;-75
2024/04/08 08:27:55;;;;;;;10.32;3.30;;;18.40;92.60;;;;;;4987270;28;20030;-75
2024/04/08 08:30:21;;;;;;;6.85;3.00;;;18.40;92.60;;;;;;4987655;28;20034;-75
2024/04/08 08:32:50;;;;;;;12.27;4.28;;;18.50;92.50;;;;;;4988000;28;20077;-75
2024/04/08 08:35:16;;;;;;;6.20;3.33;;;18.50;92.40;;;;;;4986729;28;20054;-75
2024/04/08 08:37:41;;;;;;;7.75;3.95;;;18.50;92.20;;;;;;4988552;28;20042;-75
2024/04/08 08:40:07;;;;;;;7.65;3.08;;;18.40;92.20;;;;;;4985811;28;20073;-75
2024/04/08 08:42:33;;;;;;;6.90;3.85;;;18.50;92.20;;;;;;4990062;28;20023;-75
2024/04/08 08:45:03;;;;;;;11.40;4.35;;;18.50;92.30;;;;;;4997004;28;20374;-75
2024/04/08 08:47:29;;;;;;;6.72;3.35;;;18.50;92.30;;;;;;4989880;28;20097;-75
2024/04/08 08:49:55;;;;;;;7.13;3.45;;;18.50;92.40;;;;;;4988932;28;20062;-75
2024/04/08 08:52:21;;;;;;;9.20;4.10;;;18.50;92.40;;;;;;4990060;28;20026;-75
2024/04/08 08:56:07;;;;;;;12.60;3.08;;;18.50;92.40;;;;;;5426175;26;20314;-74
2024/04/08 08:58:33;;;;;;;2.15;1.73;;;18.50;92.30;;;;;;5392509;26;20477;-74
2024/04/08 09:01:00;;;;;;;6.05;4.00;;;18.60;92.40;;;;;;5393786;26;20455;-75
2024/04/08 09:03:28;;;;;;;11.25;4.30;;;18.60;92.50;;;;;;5369965;26;20008;-74
2024/04/08 09:05:55;;;;;;;10.88;4.43;;;18.60;92.50;;;;;;5391863;26;20069;-74
2024/04/08 09:08:21;;;;;;;5.78;3.40;;;18.70;92.50;;;;;;5390173;26;20345;-74
2024/04/08 09:10:48;;;;;;;6.47;3.60;;;18.70;92.50;;;;;;5392959;26;20014;-75
2024/04/08 09:13:21;;;;;;;11.10;4.38;;;18.70;92.40;;;;;;5370360;26;20058;-74
2024/04/08 09:15:48;;;;;;;10.40;4.38;;;18.70;92.50;;;;;;5393109;26;20367;-74
2024/04/08 09:18:18;;;;;;;8.60;4.20;;;18.80;92.70;;;;;;5391684;26;20000;-75
2024/04/08 09:20:44;;;;;;;11.68;4.10;;;18.80;92.70;;;;;;5392630;26;20413;-74
2024/04/08 09:23:10;;;;;;;9.57;4.45;;;18.90;92.70;;;;;;5390608;26;20049;-74
2024/04/08 09:25:36;;;;;;;9.70;4.28;;;18.90;92.80;;;;;;5392436;26;20000;-74
2024/04/08 09:28:02;;;;;;;9.73;4.65;;;18.90;92.70;;;;;;5393479;26;20141;-75
2024/04/08 09:30:27;;;;;;;10.70;5.07;;;18.90;92.70;;;;;;5387816;26;20000;-74
2024/04/08 09:32:54;;;;;;;10.50;5.40;;;19.00;92.90;;;;;;5392872;26;20012;-74
2024/04/08 09:35:20;;;;;;;17.50;5.60;;;19.00;93.00;;;;;;5367460;26;20004;-74
2024/04/08 09:37:47;;;;;;;9.77;4.13;;;19.00;92.90;;;;;;5358843;26;20000;-74
2024/04/08 09:40:14;;;;;;;8.73;5.07;;;19.10;93.00;;;;;;5383175;26;20004;-74
2024/04/08 09:42:41;;;;;;;12.63;4.70;;;19.10;92.90;;;;;;5393731;26;20011;-74
2024/04/08 09:45:09;;;;;;;14.30;6.30;;;19.10;92.80;;;;;;5386678;26;20023;-74
2024/04/08 09:47:37;;;;;;;7.28;3.40;;;19.10;92.80;;;;;;5392967;26;20466;-74
2024/04/08 09:50:04;;;;;;;14.32;5.78;;;19.20;92.60;;;;;;5392297;26;20041;-74
2024/04/08 09:52:29;;;;;;;9.13;5.22;;;19.20;92.50;;;;;;5392829;26;20024;-74
2024/04/08 09:54:56;;;;;;;10.98;5.13;;;19.20;92.80;;;;;;5393102;26;20007;-73
2024/04/08 09:57:26;;;;;;;12.85;6.07;;;19.20;92.80;;;;;;5393663;26;20328;-73
2024/04/08 09:59:58;;;;;;;10.55;5.47;;;19.30;93.00;;;;;;5388653;26;20319;-74
2024/04/08 10:02:39;;;;;;;10.75;5.28;;;19.30;93.00;;;;;;5390906;26;20605;-73
2024/04/08 10:05:05;;;;;;;11.63;4.97;;;19.40;93.20;;;;;;5383740;26;20000;-73
2024/04/08 10:07:32;;;;;;;13.85;6.00;;;19.30;93.20;;;;;;5372438;26;20004;-74
2024/04/08 10:10:01;;;;;;;11.20;5.40;;;19.40;93.10;;;;;;5374945;26;20000;-73
2024/04/08 10:12:34;;;;;;;13.80;5.38;;;19.40;93.10;;;;;;5376290;26;20012;-74
2024/04/08 10:15:10;;;;;;;11.05;5.43;;;19.40;93.10;;;;;;5376693;26;20469;-73
2024/04/08 10:17:36;;;;;;;8.52;4.38;;;19.50;93.10;;;;;;5378833;26;20000;-74
2024/04/08 10:20:11;;;;;;;9.98;5.20;;;19.50;92.80;;;;;;5376028;26;20023;-73
2024/04/08 10:22:38;;;;;;;9.95;5.13;;;19.60;92.70;;;;;;5375070;26;20015;-74
2024/04/08 10:25:24;;;;;;;8.90;4.57;;;19.70;92.80;;;;;;5376731;26;20023;-73
2024/04/08 10:27:59;;;;;;;10.45;4.68;;;19.70;92.60;;;;;;5372809;26;20036;-73
2024/04/08 10:30:25;;;;;;;10.43;5.50;;;19.70;92.50;;;;;;5369086;26;20069;-74
2024/04/08 10:32:51;;;;;;;11.07;4.28;;;19.80;92.40;;;;;;5365689;26;20000;-74
2024/04/08 10:35:16;;;;;;;15.00;5.25;;;19.80;92.30;;;;;;5374555;26;20051;-73
2024/04/08 10:37:42;;;;;;;12.73;5.20;;;19.80;92.30;;;;;;5376854;26;19996;-74
2024/04/08 10:40:11;;;;;;;9.77;3.95;;;20.00;92.30;;;;;;5375995;26;20436;-74
2024/04/08 10:42:36;;;;;;;9.65;4.50;;;20.00;92.20;;;;;;5374692;26;19996;-74
2024/04/08 10:45:02;;;;;;;10.25;4.80;;;20.10;92.20;;;;;;5374172;26;20011;-74
2024/04/08 10:47:28;;;;;;;6.97;4.28;;;20.10;92.30;;;;;;5371301;26;20007;-74
2024/04/08 10:49:54;;;;;;;7.90;3.65;;;20.10;92.40;;;;;;5373891;26;20008;-73
2024/04/08 10:52:19;;;;;;;10.07;3.80;;;20.10;92.40;;;;;;5368649;26;20019;-73
2024/04/08 10:54:45;;;;;;;7.43;3.72;;;20.10;92.40;;;;;;5369371;26;20341;-75
2024/04/08 10:57:11;;;;;;;9.63;4.18;;;20.10;92.30;;;;;;5376422;26;20011;-75
2024/04/08 10:59:37;;;;;;;7.95;3.58;;;20.20;92.30;;;;;;5374134;26;20331;-75
2024/04/08 11:02:12;;;;;;;6.53;3.53;;;20.20;92.30;;;;;;5374616;26;20074;-75
2024/04/08 11:04:38;;;;;;;10.95;4.13;;;20.20;92.30;;;;;;5374912;26;20463;-74
2024/04/08 11:07:04;;;;;;;8.35;4.55;;;20.30;92.20;;;;;;5374792;26;20007;-74
2024/04/08 11:09:29;;;;;;;11.57;4.40;;;20.30;92.20;;;;;;5372908;26;20011;-74
2024/04/08 11:11:55;;;;;;;8.73;3.88;;;20.30;92.60;;;;;;5376949;26;20015;-75
2024/04/08 11:14:21;;;;;;;12.32;4.60;;;20.30;92.10;;;;;;5369639;26;19996;-74
2024/04/08 11:16:47;;;;;;;7.10;3.35;;;20.40;92.10;;;;;;5374658;26;20000;-74
2024/04/08 11:19:12;;;;;;;3.65;2.05;;;20.50;92.00;;;;;;5375214;26;20017;-74
2024/04/08 11:21:38;;;;;;;9.90;3.78;;;20.50;92.30;;;;;;5364748;26;20004;-74
2024/04/08 11:24:04;;;;;;;11.02;3.53;;;20.50;92.20;;;;;;5365630;26;20050;-74
2024/04/08 11:26:30;;;;;;;8.65;3.10;;;20.60;92.10;;;;;;5377674;26;20431;-74
2024/04/08 11:29:00;;;;;;;10.38;3.10;;;20.50;92.10;;;;;;5372519;26;19996;-74
2024/04/08 11:31:25;;;;;;;6.97;2.92;;;20.60;92.00;;;;;;5375170;26;20004;-74
2024/04/08 11:33:51;;;;;;;7.45;3.30;;;20.60;92.00;;;;;;5373462;26;20011;-74
2024/04/08 11:36:18;;;;;;;6.72;3.22;;;20.70;91.90;;;;;;5372407;26;20031;-74
2024/04/08 11:38:43;;;;;;;6.55;3.75;;;20.70;91.80;;;;;;5373878;26;20456;-74
2024/04/08 11:41:09;;;;;;;16.38;3.75;;;20.80;92.10;;;;;;5376003;26;20000;-74
2024/04/08 11:43:35;;;;;;;13.23;3.53;;;20.80;92.20;;;;;;5374286;26;20018;-74
2024/04/08 11:46:01;;;;;;;7.63;3.03;;;20.80;92.30;;;;;;5367172;26;20001;-74
2024/04/08 11:48:26;;;;;;;10.73;3.85;;;20.80;92.40;;;;;;5366990;26;20070;-75
2024/04/08 11:50:52;;;;;;;5.55;2.65;;;20.70;92.30;;;;;;5373498;26;20210;-74
2024/04/08 11:53:17;;;;;;;7.47;2.40;;;20.70;92.80;;;;;;5377590;26;20093;-74
2024/04/08 11:55:44;;;;;;;9.52;2.88;;;20.60;93.10;;;;;;5369764;26;20004;-75
2024/04/08 11:58:10;;;;;;;5.85;2.70;;;20.60;93.10;;;;;;5371009;26;20004;-74
2024/04/08 12:00:36;;;;;;;6.40;2.90;;;20.60;93.10;;;;;;5367758;26;20000;-74
2024/04/08 12:03:02;;;;;;;9.15;3.42;;;20.60;93.00;;;;;;5372339;26;20475;-74
2024/04/08 12:05:28;;;;;;;6.75;3.00;;;20.60;92.70;;;;;;5373074;26;20010;-74
2024/04/08 12:07:54;;;;;;;8.23;2.97;;;20.70;92.60;;;;;;5367690;26;20000;-74
2024/04/08 12:10:20;;;;;;;6.55;2.15;;;20.80;92.50;;;;;;5363230;26;20024;-74
2024/04/08 12:12:45;;;;;;;4.95;2.20;;;20.90;92.60;;;;;;5373961;26;20339;-74
2024/04/08 12:15:12;;;;;;;5.45;1.83;;;20.90;93.10;;;;;;5372886;26;20475;-74
2024/04/08 12:17:38;;;;;;;5.50;1.95;;;21.00;93.20;;;;;;5374833;26;19996;-75
2024/04/08 12:20:05;;;;;;;4.93;1.83;;;21.00;93.00;;;;;;5361499;26;20011;-74
2024/04/08 12:22:30;;;;;;;3.03;1.60;;;21.10;92.90;;;;;;5374041;26;19996;-74
2024/04/08 12:24:56;;;;;;;8.70;2.10;;;21.20;93.20;;;;;;5353486;26;20590;-74
2024/04/08 12:27:27;;;;;;;5.72;1.67;;;21.20;92.90;;;;;;5372358;26;20007;-74
2024/04/08 12:29:53;;;;;;;8.13;2.03;;;21.20;92.70;;;;;;5368796;26;20015;-74
2024/04/08 12:32:19;;;;;;;2.28;1.40;;;21.30;92.90;;;;;;5362030;26;20493;-75
2024/04/08 12:34:45;;;;;;;4.53;1.60;;;21.30;92.70;;;;;;5367498;26;19996;-75
2024/04/08 12:37:11;;;;;;;4.63;1.70;;;21.20;92.60;;;;;;5372236;26;20011;-74
2024/04/08 12:39:38;;;;;;;4.55;1.73;;;21.30;92.30;;;;;;5364782;26;20467;-74
2024/04/08 12:42:05;;;;;;;3.28;1.67;;;21.40;92.90;;;;;;5359906;26;20073;-74